Portada
METAR-TAF:

METAR-TAF

Aeropuertos :

El Oued, Argelia

latitud: 33-30-47N, longitud: 006-46-57E, altitud: 62 m

Observación

El informe se hizo hace 50 minutos, a las 14:00 UTC
Viento 10 kt del oeste
Temperatura 29°C
Humedad 27%
Presión 1009 hPa
Visibilidad 10 km o más
sin nubes por debajo de 1500 m y sin presencia de cumulonimbus.

METAR: DAUO 191400Z 28010KT CAVOK 29/08 Q1009

Hora: 15:50 (14:50 UTC)

Pronóstico

El informe se hizo hace 50 minutos, a las 14:00 UTC
Pronóstico válido del 19 a las 15 UTC al 19 a las 24 UTC
Viento 12 kt del norte-noroeste
Visibilidad 10 km o más
sin nubes por debajo de 1500 m y sin presencia de cumulonimbus.

TAF: DAUO 191400Z 1915/1924 34012KT CAVOK

Observaciones y pronósticos meteorológicos de más de 4000 aeropuertos (mensajes METAR y TAF).

Los puntos amarillos y rojos representan las estaciones disponibles.

Ponga el ratón en el punto deseado para ver el nombre de la estación.

Haga clic para ver las observaciones y los pronósticos meteorológicos.

Para cambiar el mapa : haga clic en los botones verdes con una cruz de color negro para hacer un zoom, en el botón verde con un guión para alejar o en las flechas verdes para mapas adyacentes.


METAR-TAF: